Time;durP1;ratioP1;P1;durP2;ratioP2;P2;SDS_P1;SDS_P2;PMS_P1;PMS_P2;Temp;Humidity;BMP_temperature;BMP_pressure;BME280_temperature;BME280_humidity;BME280_pressure;Samples;Min_cycle;Max_cycle;Signal;HPM_P1;HPM_P2
2021/03/28 00:02:30;;;;;;;12.07;4.27;;;13.50;99.90;;;;;;4904838;29;20205;-93
2021/03/28 00:05:16;;;;;;;12.03;4.13;;;13.40;99.90;;;;;;4908065;29;20557;-93
2021/03/28 00:07:52;;;;;;;13.07;4.37;;;13.30;99.90;;;;;;4912962;29;20213;-94
2021/03/28 00:10:40;;;;;;;12.43;4.00;;;13.30;99.90;;;;;;4912365;29;20214;-94
2021/03/28 00:13:15;;;;;;;13.17;4.00;;;13.00;99.90;;;;;;4905428;29;20262;-93
2021/03/28 00:16:01;;;;;;;11.87;3.67;;;12.50;99.90;;;;;;4904377;29;20202;-93
2021/03/28 00:19:11;;;;;;;12.07;3.70;;;12.60;99.90;;;;;;4904594;29;20252;-94
2021/03/28 00:21:51;;;;;;;11.30;3.70;;;12.60;99.90;;;;;;4903910;29;20754;-93
2021/03/28 00:24:28;;;;;;;11.67;3.70;;;12.70;99.90;;;;;;4904792;29;20213;-93
2021/03/28 00:27:09;;;;;;;13.87;3.97;;;12.60;99.90;;;;;;4906206;29;20213;-93
2021/03/28 00:29:51;;;;;;;9.00;3.63;;;12.60;99.90;;;;;;4901953;29;20213;-95
2021/03/28 00:32:26;;;;;;;10.33;3.57;;;12.50;99.90;;;;;;4910146;29;20213;-94
2021/03/28 00:35:08;;;;;;;17.33;4.60;;;12.50;99.90;;;;;;4912118;29;20256;-93
2021/03/28 00:37:42;;;;;;;12.00;4.10;;;12.50;99.90;;;;;;4909824;29;20329;-90
2021/03/28 00:40:24;;;;;;;12.83;3.83;;;12.50;99.90;;;;;;4910197;29;20281;-90
2021/03/28 00:43:13;;;;;;;14.67;4.07;;;12.60;99.90;;;;;;4897920;29;20210;-91
2021/03/28 00:46:01;;;;;;;14.87;3.93;;;12.60;99.90;;;;;;4911344;28;20670;-93
2021/03/28 00:48:35;;;;;;;13.83;4.40;;;12.70;99.90;;;;;;4907855;29;20217;-92
2021/03/28 00:51:14;;;;;;;14.93;4.57;;;12.70;99.90;;;;;;4911283;29;20214;-93
2021/03/28 00:53:49;;;;;;;14.17;4.03;;;12.60;99.90;;;;;;4912986;29;20316;-92
2021/03/28 00:56:38;;;;;;;13.40;4.37;;;12.60;99.90;;;;;;4912429;29;20205;-94
2021/03/28 00:59:19;;;;;;;9.97;3.27;;;12.60;99.90;;;;;;4911116;29;20238;-94
2021/03/28 01:02:06;;;;;;;12.87;3.80;;;12.50;99.90;;;;;;4908352;29;20278;-94
2021/03/28 01:04:55;;;;;;;13.17;4.00;;;12.50;99.90;;;;;;4908867;29;20249;-93
2021/03/28 01:07:53;;;;;;;12.03;4.00;;;12.30;99.90;;;;;;4907315;29;20214;-93
2021/03/28 01:10:59;;;;;;;11.37;3.57;;;12.20;99.90;;;;;;4909443;29;20216;-94
2021/03/28 01:14:22;;;;;;;17.80;4.33;;;12.10;99.90;;;;;;4905295;29;20313;-94
2021/03/28 01:17:35;;;;;;;9.97;3.20;;;12.10;99.90;;;;;;4861153;29;20689;-94
2021/03/28 01:20:41;;;;;;;11.37;3.57;;;12.10;99.90;;;;;;4902836;29;20217;-96
2021/03/28 01:23:25;;;;;;;11.50;3.53;;;12.10;99.90;;;;;;4903569;29;20218;-94
2021/03/28 01:26:22;;;;;;;10.67;3.80;;;12.10;99.90;;;;;;4905061;29;20224;-94
2021/03/28 01:28:58;;;;;;;11.93;3.80;;;12.30;99.90;;;;;;4889204;29;20210;-93
2021/03/28 01:31:43;;;;;;;9.03;3.70;;;12.00;99.90;;;;;;4904694;29;20588;-93
2021/03/28 01:34:23;;;;;;;8.90;3.30;;;11.90;99.90;;;;;;4909039;28;20233;-94
2021/03/28 01:37:06;;;;;;;15.20;4.00;;;12.00;99.90;;;;;;4905705;29;20277;-93
2021/03/28 01:39:48;;;;;;;13.33;3.87;;;11.90;99.90;;;;;;4891700;29;20277;-95
2021/03/28 01:42:44;;;;;;;14.90;3.47;;;11.90;99.90;;;;;;4888103;29;20254;-92
2021/03/28 01:45:27;;;;;;;13.40;4.17;;;11.90;99.90;;;;;;4885992;29;20222;-93
2021/03/28 01:48:15;;;;;;;12.43;3.47;;;11.80;99.90;;;;;;4893635;29;20587;-94
2021/03/28 01:50:58;;;;;;;12.30;3.50;;;11.70;99.90;;;;;;4902087;29;20217;-94
2021/03/28 01:53:47;;;;;;;9.23;3.37;;;11.70;99.90;;;;;;4902781;29;20246;-93
2021/03/28 01:56:27;;;;;;;11.23;3.50;;;11.60;99.90;;;;;;4888259;29;20270;-94
2021/03/28 01:59:15;;;;;;;9.90;3.60;;;11.60;99.90;;;;;;4888287;29;20262;-94
2021/03/28 02:01:56;;;;;;;10.93;3.50;;;11.50;99.90;;;;;;4885455;29;20266;-93
2021/03/28 02:04:55;;;;;;;10.53;3.47;;;11.50;99.90;;;;;;4888017;29;20206;-94
2021/03/28 02:07:40;;;;;;;9.23;3.50;;;11.50;99.90;;;;;;4885974;29;20270;-95
2021/03/28 02:10:22;;;;;;;12.23;3.80;;;11.30;99.90;;;;;;4885799;29;20218;-95
2021/03/28 02:12:58;;;;;;;17.07;4.40;;;11.30;99.90;;;;;;4884085;29;20218;-94
2021/03/28 02:15:47;;;;;;;11.30;4.13;;;11.20;99.90;;;;;;4884868;29;20285;-94
2021/03/28 02:18:39;;;;;;;11.53;4.17;;;11.20;99.90;;;;;;4883437;29;20241;-95
2021/03/28 02:21:17;;;;;;;12.53;4.70;;;11.20;99.90;;;;;;4889098;29;20273;-94
2021/03/28 02:23:53;;;;;;;14.10;4.50;;;11.10;99.90;;;;;;4884124;29;20266;-94
2021/03/28 02:26:35;;;;;;;14.70;4.17;;;11.00;99.90;;;;;;4884758;29;20225;-94
2021/03/28 02:29:21;;;;;;;8.43;4.10;;;11.00;99.90;;;;;;4882538;29;20214;-94
2021/03/28 02:32:17;;;;;;;15.10;4.90;;;10.90;99.90;;;;;;4883095;29;20550;-94
2021/03/28 02:35:02;;;;;;;10.87;3.93;;;10.90;99.90;;;;;;4882538;29;20234;-94
2021/03/28 02:37:58;;;;;;;11.97;4.23;;;10.80;99.90;;;;;;4882806;29;20214;-94
2021/03/28 02:40:42;;;;;;;11.80;4.10;;;10.70;99.90;;;;;;4882829;29;20222;-93
2021/03/28 02:43:32;;;;;;;11.40;3.27;;;10.60;99.90;;;;;;4884190;29;20221;-92
2021/03/28 02:46:16;;;;;;;16.90;4.47;;;10.60;99.90;;;;;;4883865;29;20211;-93
2021/03/28 02:48:59;;;;;;;10.83;3.67;;;10.50;99.90;;;;;;4885741;29;20206;-92
2021/03/28 02:51:58;;;;;;;11.80;3.87;;;10.50;99.90;;;;;;4890114;29;20214;-94
2021/03/28 02:55:01;;;;;;;15.83;4.37;;;10.40;99.90;;;;;;4889078;29;20306;-93
2021/03/28 02:57:51;;;;;;;14.87;4.63;;;10.40;99.90;;;;;;4904082;29;20674;-93
2021/03/28 03:00:39;;;;;;;12.83;4.10;;;10.30;99.90;;;;;;4904508;29;20249;-92
2021/03/28 03:03:28;;;;;;;11.63;4.17;;;10.30;99.90;;;;;;4910479;29;20297;-93
2021/03/28 03:06:33;;;;;;;12.40;3.90;;;10.30;99.90;;;;;;4916673;29;20197;-93
2021/03/28 03:09:11;;;;;;;12.50;3.83;;;10.20;99.90;;;;;;4914582;29;20205;-95
2021/03/28 03:12:14;;;;;;;8.93;3.27;;;10.20;99.90;;;;;;4913373;29;20232;-93
2021/03/28 03:15:04;;;;;;;8.77;3.50;;;10.20;99.90;;;;;;4912863;29;20240;-93
2021/03/28 03:18:11;;;;;;;11.57;3.67;;;10.20;99.90;;;;;;4906233;29;20218;-94
2021/03/28 03:21:35;;;;;;;13.70;3.93;;;10.10;99.90;;;;;;4914322;29;20217;-95
2021/03/28 03:24:42;;;;;;;9.73;3.87;;;10.10;99.90;;;;;;4919812;29;20301;-93
2021/03/28 03:27:58;;;;;;;11.03;3.90;;;10.10;99.90;;;;;;4920980;29;20241;-92
2021/03/28 03:30:49;;;;;;;13.40;3.87;;;10.00;99.90;;;;;;4896298;29;20208;-95
2021/03/28 03:33:53;;;;;;;10.57;4.43;;;10.00;99.90;;;;;;4909652;29;20203;-91
2021/03/28 03:37:03;;;;;;;12.83;4.83;;;9.90;99.90;;;;;;4898128;29;20247;-90
2021/03/28 03:40:07;;;;;;;14.03;5.20;;;9.90;99.90;;;;;;4887124;29;20687;-93
2021/03/28 03:43:03;;;;;;;14.97;5.37;;;9.90;99.90;;;;;;4877520;29;20216;-93
2021/03/28 03:45:59;;;;;;;22.60;7.77;;;9.80;99.90;;;;;;4884391;29;20218;-93
2021/03/28 03:48:55;;;;;;;18.03;7.63;;;9.80;99.90;;;;;;4883101;29;20270;-92
2021/03/28 03:52:01;;;;;;;15.03;6.53;;;9.80;99.90;;;;;;4888611;29;20278;-94
2021/03/28 03:54:55;;;;;;;13.87;4.97;;;9.70;99.90;;;;;;4883060;29;20669;-93
2021/03/28 03:57:32;;;;;;;11.57;4.80;;;9.70;99.90;;;;;;4882181;29;20266;-92
2021/03/28 04:00:27;;;;;;;15.10;5.10;;;9.70;99.90;;;;;;4883022;29;20308;-93
2021/03/28 04:03:13;;;;;;;14.03;4.37;;;9.60;99.90;;;;;;4881565;29;20274;-93
2021/03/28 04:05:59;;;;;;;10.17;4.33;;;9.60;99.90;;;;;;4885318;29;20210;-94
2021/03/28 04:08:54;;;;;;;9.23;3.83;;;9.60;99.90;;;;;;4882587;29;20234;-93
2021/03/28 04:11:57;;;;;;;15.30;4.43;;;9.50;99.90;;;;;;4893613;29;20214;-94
2021/03/28 04:15:07;;;;;;;14.67;4.40;;;9.50;99.90;;;;;;4880647;29;20222;-93
2021/03/28 04:18:12;;;;;;;15.83;4.67;;;9.50;99.90;;;;;;4900313;29;20228;-94
2021/03/28 04:20:52;;;;;;;14.00;4.20;;;9.50;99.90;;;;;;4892591;29;20218;-95
2021/03/28 04:23:49;;;;;;;9.23;4.20;;;9.50;99.90;;;;;;4892524;29;20273;-94
2021/03/28 04:26:28;;;;;;;11.27;3.90;;;9.50;99.90;;;;;;4890351;29;20214;-95
2021/03/28 04:29:05;;;;;;;11.53;4.07;;;9.50;99.90;;;;;;4888800;29;20245;-93
2021/03/28 04:32:14;;;;;;;13.10;4.20;;;9.40;99.90;;;;;;4888290;29;20369;-94
2021/03/28 04:35:07;;;;;;;15.77;6.87;;;9.30;99.90;;;;;;4891485;29;20292;-93
2021/03/28 04:37:52;;;;;;;15.53;6.00;;;9.30;99.90;;;;;;4907519;29;20206;-93
2021/03/28 04:40:56;;;;;;;14.67;5.17;;;9.20;99.90;;;;;;4910723;29;20217;-93
2021/03/28 04:44:00;;;;;;;8.27;4.10;;;9.20;99.90;;;;;;4905555;29;20209;-92
2021/03/28 04:46:58;;;;;;;12.37;4.43;;;9.10;99.90;;;;;;4904525;29;20281;-92
2021/03/28 04:50:04;;;;;;;17.03;4.80;;;9.20;99.90;;;;;;4903321;29;20206;-93
2021/03/28 04:53:11;;;;;;;16.30;4.77;;;9.10;99.90;;;;;;4904385;29;20217;-92
2021/03/28 04:56:29;;;;;;;14.33;5.10;;;9.00;99.90;;;;;;4903194;29;20358;-93
2021/03/28 04:59:36;;;;;;;12.80;5.53;;;8.90;99.90;;;;;;4899690;29;20221;-92
2021/03/28 05:02:26;;;;;;;14.60;5.03;;;8.90;99.90;;;;;;4904637;29;20576;-92
2021/03/28 05:05:19;;;;;;;14.43;4.37;;;8.90;99.90;;;;;;4907993;29;20246;-92
2021/03/28 05:08:28;;;;;;;10.83;4.60;;;8.80;99.90;;;;;;4908451;29;20209;-94
2021/03/28 05:11:43;;;;;;;14.20;4.70;;;8.80;99.90;;;;;;4906416;29;20220;-92
2021/03/28 05:14:41;;;;;;;13.60;5.03;;;8.80;99.90;;;;;;4906723;29;20244;-94
2021/03/28 05:17:44;;;;;;;12.53;4.50;;;8.80;99.90;;;;;;4912468;29;20236;-92
2021/03/28 05:20:39;;;;;;;12.87;4.73;;;8.90;99.90;;;;;;4911245;29;20619;-94
2021/03/28 05:23:34;;;;;;;15.37;4.90;;;8.90;99.90;;;;;;4913387;29;20225;-93
2021/03/28 05:26:45;;;;;;;11.83;5.00;;;9.00;99.90;;;;;;4911666;29;20233;-93
2021/03/28 05:30:01;;;;;;;13.87;4.70;;;9.00;99.90;;;;;;4902415;29;20225;-93
2021/03/28 05:33:05;;;;;;;11.30;5.03;;;9.10;99.90;;;;;;4831500;29;20243;-93
2021/03/28 05:36:12;;;;;;;17.10;5.00;;;9.20;99.90;;;;;;4858907;29;20241;-92
2021/03/28 05:39:21;;;;;;;18.03;6.03;;;9.20;99.90;;;;;;4812599;29;20232;-93
2021/03/28 05:42:26;;;;;;;15.27;5.40;;;9.10;99.90;;;;;;4804068;29;20631;-92
2021/03/28 05:45:23;;;;;;;11.07;5.37;;;9.10;99.90;;;;;;4808963;29;20220;-94
2021/03/28 05:48:34;;;;;;;11.97;5.10;;;9.10;99.90;;;;;;4880292;29;20242;-92
2021/03/28 05:51:45;;;;;;;11.73;4.77;;;9.10;99.90;;;;;;4884828;29;20289;-92
2021/03/28 05:55:04;;;;;;;10.13;5.23;;;9.10;99.90;;;;;;4877771;29;20297;-93
2021/03/28 05:58:14;;;;;;;16.43;5.30;;;9.00;99.90;;;;;;4889536;29;20242;-94
2021/03/28 06:01:11;;;;;;;10.57;5.53;;;9.00;99.90;;;;;;4887358;29;20225;-93
2021/03/28 06:04:22;;;;;;;12.57;5.27;;;9.00;99.90;;;;;;4884780;29;20234;-93
2021/03/28 06:07:31;;;;;;;12.30;5.30;;;9.00;99.90;;;;;;4884690;29;20272;-94
2021/03/28 06:10:34;;;;;;;10.67;5.17;;;9.00;99.90;;;;;;4884274;29;20210;-93
2021/03/28 06:13:41;;;;;;;14.63;5.43;;;9.00;99.90;;;;;;4874326;29;20221;-93
2021/03/28 06:16:42;;;;;;;16.23;5.00;;;8.90;99.90;;;;;;4887713;29;20734;-93
2021/03/28 06:19:41;;;;;;;9.13;5.03;;;8.90;99.90;;;;;;4887586;29;20227;-93
2021/03/28 06:22:39;;;;;;;12.17;5.00;;;8.90;99.90;;;;;;4887832;29;20247;-93
2021/03/28 06:25:59;;;;;;;10.63;4.77;;;8.80;99.90;;;;;;4884741;29;20228;-93
2021/03/28 06:29:01;;;;;;;14.50;5.80;;;8.80;99.90;;;;;;4826180;29;20204;-94
2021/03/28 06:32:11;;;;;;;12.23;5.27;;;8.80;99.90;;;;;;4882955;29;20272;-93
2021/03/28 06:35:13;;;;;;;13.07;5.17;;;8.70;99.90;;;;;;4863896;29;20291;-92
2021/03/28 06:38:22;;;;;;;14.70;5.20;;;8.70;99.90;;;;;;4908154;29;20235;-92
2021/03/28 06:41:09;;;;;;;14.57;5.73;;;8.60;99.90;;;;;;4909751;29;20327;-91
2021/03/28 06:44:08;;;;;;;16.70;6.13;;;8.60;99.90;;;;;;4905070;29;20221;-90
2021/03/28 06:47:16;;;;;;;12.80;5.07;;;8.50;99.90;;;;;;4901743;29;20220;-91
2021/03/28 06:50:30;;;;;;;12.87;5.07;;;8.50;99.90;;;;;;4888904;29;20213;-92
2021/03/28 06:53:37;;;;;;;13.50;5.50;;;8.50;99.90;;;;;;4858022;29;20238;-92
2021/03/28 06:56:52;;;;;;;12.90;5.90;;;8.60;99.90;;;;;;4882769;29;20265;-92
2021/03/28 06:59:44;;;;;;;10.90;6.10;;;8.60;99.90;;;;;;4882424;29;20213;-91
2021/03/28 07:02:45;;;;;;;15.27;5.17;;;8.70;99.90;;;;;;4884506;29;20239;-91
2021/03/28 07:05:29;;;;;;;17.93;6.37;;;8.80;99.90;;;;;;4884527;29;20231;-92
2021/03/28 07:08:51;;;;;;;15.40;5.80;;;8.80;99.90;;;;;;4885737;29;20363;-94
2021/03/28 07:11:52;;;;;;;10.43;5.63;;;8.90;99.90;;;;;;4887180;29;20297;-93
2021/03/28 07:15:19;;;;;;;12.73;5.07;;;9.00;99.90;;;;;;4884472;29;20265;-93
2021/03/28 07:18:31;;;;;;;11.93;5.77;;;9.10;99.90;;;;;;4902588;29;20254;-94
2021/03/28 07:21:29;;;;;;;14.80;6.30;;;9.10;99.90;;;;;;4907797;29;20630;-93
2021/03/28 07:24:44;;;;;;;12.50;5.93;;;9.10;99.90;;;;;;4888442;29;20221;-93
2021/03/28 07:27:44;;;;;;;16.43;5.73;;;9.10;99.90;;;;;;4855063;29;20654;-94
2021/03/28 07:30:59;;;;;;;10.03;5.67;;;9.10;99.90;;;;;;4890057;29;20210;-93
2021/03/28 07:34:00;;;;;;;15.23;6.50;;;9.00;99.90;;;;;;4886090;29;20302;-93
2021/03/28 07:37:12;;;;;;;15.33;6.20;;;9.00;99.90;;;;;;4885607;29;20206;-92
2021/03/28 07:40:33;;;;;;;16.37;6.73;;;9.00;99.90;;;;;;4883510;29;20283;-91
2021/03/28 07:43:41;;;;;;;19.67;6.60;;;9.00;99.90;;;;;;4795552;29;20243;-92
2021/03/28 07:46:32;;;;;;;15.17;6.30;;;9.00;99.90;;;;;;4883194;29;20387;-92
2021/03/28 07:49:38;;;;;;;18.17;6.63;;;8.90;99.90;;;;;;4884538;29;20315;-91
2021/03/28 07:52:28;;;;;;;14.80;6.73;;;9.00;99.90;;;;;;4886377;29;20270;-93
2021/03/28 07:55:25;;;;;;;13.60;6.13;;;9.00;99.90;;;;;;4886829;29;20247;-93
2021/03/28 07:58:33;;;;;;;23.33;6.57;;;9.10;99.90;;;;;;4887995;29;20220;-92
2021/03/28 08:01:45;;;;;;;14.03;6.10;;;9.00;99.90;;;;;;4886290;29;20236;-93
2021/03/28 08:04:58;;;;;;;16.67;6.73;;;9.00;99.90;;;;;;4886074;29;20588;-92
2021/03/28 08:07:56;;;;;;;16.00;6.50;;;9.10;99.90;;;;;;4888798;29;20214;-93
2021/03/28 08:10:59;;;;;;;10.30;5.80;;;9.10;99.90;;;;;;4886096;29;20217;-93
2021/03/28 08:14:06;;;;;;;19.13;6.57;;;9.10;99.90;;;;;;4877670;29;20637;-94
2021/03/28 08:17:00;;;;;;;15.53;7.07;;;9.00;99.90;;;;;;4886367;29;20218;-94
2021/03/28 08:19:52;;;;;;;15.63;6.47;;;9.00;99.90;;;;;;4884340;29;20304;-94
2021/03/28 08:22:34;;;;;;;12.33;5.87;;;8.90;99.90;;;;;;4885854;29;20622;-93
2021/03/28 08:25:34;;;;;;;17.30;6.43;;;9.00;99.90;;;;;;4886733;29;20746;-93
2021/03/28 08:28:47;;;;;;;13.60;5.87;;;9.00;99.90;;;;;;4890882;29;20236;-94
2021/03/28 08:31:23;;;;;;;16.87;6.37;;;9.00;99.90;;;;;;4860783;29;20689;-93
2021/03/28 08:34:39;;;;;;;14.17;5.87;;;9.00;99.90;;;;;;4888216;29;20246;-93
2021/03/28 08:37:48;;;;;;;17.90;7.03;;;9.00;99.90;;;;;;4881936;29;20210;-92
2021/03/28 08:40:56;;;;;;;15.60;6.87;;;9.00;99.90;;;;;;4892949;29;20228;-91
2021/03/28 08:44:09;;;;;;;19.40;6.00;;;8.90;99.90;;;;;;4887720;29;20273;-92
2021/03/28 08:47:21;;;;;;;13.13;6.17;;;8.90;99.90;;;;;;4884748;29;20222;-91
2021/03/28 08:49:59;;;;;;;17.87;7.23;;;8.90;99.90;;;;;;4892703;29;20216;-93
2021/03/28 08:53:11;;;;;;;18.03;6.73;;;8.90;99.90;;;;;;4895693;29;20217;-93
2021/03/28 08:56:23;;;;;;;16.60;6.87;;;8.90;99.90;;;;;;4900337;29;20288;-92
2021/03/28 08:58:56;;;;;;;16.63;6.97;;;8.80;99.90;;;;;;4877784;29;20206;-93
2021/03/28 09:01:44;;;;;;;14.20;6.10;;;8.80;99.90;;;;;;4895951;29;20260;-92
2021/03/28 09:04:18;;;;;;;16.93;6.70;;;8.70;99.90;;;;;;4904042;29;20213;-91
2021/03/28 09:07:09;;;;;;;13.37;6.80;;;8.70;99.90;;;;;;4904004;29;20202;-91
2021/03/28 09:09:53;;;;;;;14.50;6.47;;;8.70;99.90;;;;;;4898579;29;20221;-92
2021/03/28 09:12:35;;;;;;;13.90;6.70;;;8.70;99.90;;;;;;4893062;29;20218;-94
2021/03/28 09:15:41;;;;;;;14.23;6.40;;;8.70;99.90;;;;;;4893485;29;20244;-93
2021/03/28 09:18:35;;;;;;;14.60;6.43;;;8.70;99.90;;;;;;4903769;29;20217;-94
2021/03/28 09:21:33;;;;;;;15.50;6.43;;;8.60;99.90;;;;;;4912317;29;20749;-93
2021/03/28 09:24:26;;;;;;;16.90;6.63;;;8.60;99.90;;;;;;4913184;29;20232;-94
2021/03/28 09:27:17;;;;;;;16.00;6.20;;;8.50;99.90;;;;;;4903147;29;20221;-94
2021/03/28 09:30:00;;;;;;;21.20;6.63;;;8.60;99.90;;;;;;4912979;29;20594;-93
2021/03/28 09:32:59;;;;;;;13.00;6.63;;;8.50;99.90;;;;;;4906325;29;20220;-93
2021/03/28 09:36:00;;;;;;;13.63;6.73;;;8.50;99.90;;;;;;4904220;29;20250;-93
2021/03/28 09:39:16;;;;;;;21.43;6.83;;;8.40;99.90;;;;;;4882570;29;20217;-92
2021/03/28 09:42:23;;;;;;;12.37;5.80;;;8.40;99.90;;;;;;4845813;29;20219;-92
2021/03/28 09:45:32;;;;;;;16.27;6.93;;;8.30;99.90;;;;;;4848973;29;20218;-92
2021/03/28 09:48:32;;;;;;;17.70;7.07;;;8.30;99.90;;;;;;4907818;29;20244;-91
2021/03/28 09:51:09;;;;;;;15.30;7.33;;;8.20;99.90;;;;;;4911894;29;20216;-90
2021/03/28 09:54:08;;;;;;;14.97;7.07;;;8.20;99.90;;;;;;4912911;29;20222;-90
2021/03/28 09:57:03;;;;;;;15.93;7.53;;;8.20;99.90;;;;;;4910670;29;20244;-89
2021/03/28 10:00:10;;;;;;;15.00;7.73;;;8.10;99.90;;;;;;4909373;29;20202;-90
2021/03/28 10:02:48;;;;;;;17.20;7.30;;;8.10;99.90;;;;;;4905607;29;20221;-91
2021/03/28 10:05:29;;;;;;;21.10;7.93;;;8.10;99.90;;;;;;4904580;29;20233;-93
2021/03/28 10:08:08;;;;;;;17.17;7.30;;;8.10;99.90;;;;;;4906884;29;20673;-96
2021/03/28 10:10:48;;;;;;;18.43;7.57;;;8.00;99.90;;;;;;4907196;29;20208;-94
2021/03/28 10:13:54;;;;;;;20.23;8.20;;;8.00;99.90;;;;;;4904513;29;20219;-92
2021/03/28 10:16:32;;;;;;;16.97;7.77;;;7.90;99.90;;;;;;4847834;29;20289;-93
2021/03/28 10:19:11;;;;;;;18.67;7.27;;;7.90;99.90;;;;;;4884553;29;20230;-93
2021/03/28 10:22:26;;;;;;;15.63;7.50;;;7.90;99.90;;;;;;4885073;29;20217;-93
2021/03/28 10:25:29;;;;;;;23.53;7.73;;;7.80;99.90;;;;;;4884788;29;20232;-93
2021/03/28 10:28:28;;;;;;;17.27;6.87;;;7.80;99.90;;;;;;4885324;29;20274;-94
2021/03/28 10:31:28;;;;;;;19.27;7.50;;;7.80;99.90;;;;;;4886430;29;20304;-93
2021/03/28 10:34:36;;;;;;;17.47;6.50;;;7.80;99.90;;;;;;4886144;29;20216;-92
2021/03/28 10:37:26;;;;;;;18.03;6.93;;;7.70;99.90;;;;;;4886671;29;20237;-91
2021/03/28 10:40:24;;;;;;;20.17;6.90;;;7.70;99.90;;;;;;4917177;29;20225;-93
2021/03/28 10:43:06;;;;;;;16.57;6.57;;;7.70;99.90;;;;;;4919166;29;20220;-92
2021/03/28 10:45:54;;;;;;;19.67;7.20;;;7.70;99.90;;;;;;4911711;29;20387;-93
2021/03/28 10:49:20;;;;;;;15.53;6.47;;;7.60;99.90;;;;;;4908791;29;20265;-92
2021/03/28 10:52:46;;;;;;;18.47;6.67;;;7.60;99.90;;;;;;4909005;29;20222;-92
2021/03/28 10:55:50;;;;;;;18.20;7.13;;;7.50;99.90;;;;;;4907196;29;20247;-91
2021/03/28 10:58:58;;;;;;;17.07;6.00;;;7.40;99.90;;;;;;4897681;29;20213;-93
2021/03/28 11:02:02;;;;;;;18.10;6.67;;;7.50;99.90;;;;;;4906005;29;20239;-92
2021/03/28 11:05:11;;;;;;;19.83;6.50;;;7.40;99.90;;;;;;4909411;29;20252;-92
2021/03/28 11:07:57;;;;;;;15.53;4.70;;;7.40;99.90;;;;;;4861134;29;20215;-93
2021/03/28 11:10:45;;;;;;;16.57;5.93;;;7.30;99.90;;;;;;4913702;29;20262;-94
2021/03/28 11:13:40;;;;;;;14.80;5.37;;;7.20;99.90;;;;;;4916539;29;20277;-93
2021/03/28 11:16:40;;;;;;;17.77;5.27;;;7.20;99.90;;;;;;4900999;29;20221;-93
2021/03/28 11:19:47;;;;;;;22.97;6.27;;;7.10;99.90;;;;;;4893146;29;20242;-94
2021/03/28 11:22:28;;;;;;;14.30;5.20;;;7.10;99.90;;;;;;4894655;29;20328;-93
2021/03/28 11:25:26;;;;;;;18.40;5.17;;;7.00;99.90;;;;;;4898553;29;20238;-94
2021/03/28 11:31:54;;;;;;;8.93;3.77;;;6.80;99.90;;;;;;4898509;29;20218;-95
2021/03/28 11:37:38;;;;;;;12.33;4.27;;;6.70;99.90;;;;;;4897505;29;20342;-93
2021/03/28 11:40:44;;;;;;;13.27;4.50;;;6.60;99.90;;;;;;4913036;29;20227;-96
2021/03/28 11:43:33;;;;;;;14.47;4.47;;;6.60;99.90;;;;;;4913373;29;20210;-94
2021/03/28 11:46:30;;;;;;;17.00;4.80;;;6.50;99.90;;;;;;4902916;29;20217;-93
2021/03/28 11:49:20;;;;;;;10.73;3.73;;;6.50;99.90;;;;;;4898851;29;20217;-92
2021/03/28 11:52:27;;;;;;;11.63;4.27;;;6.40;99.90;;;;;;4907450;29;20698;-94
2021/03/28 11:55:08;;;;;;;13.23;3.77;;;6.40;99.90;;;;;;4902290;29;20272;-92
2021/03/28 11:57:41;;;;;;;9.00;3.10;;;6.30;99.90;;;;;;4902708;29;20209;-95
2021/03/28 12:04:39;;;;;;;9.70;3.93;;;6.40;99.90;;;;;;4909784;29;20254;-92
2021/03/28 12:07:47;;;;;;;11.90;3.83;;;6.30;99.90;;;;;;4917211;29;20217;-94
2021/03/28 12:10:35;;;;;;;15.93;3.80;;;6.30;99.90;;;;;;4901196;29;20225;-92
2021/03/28 12:13:31;;;;;;;9.27;3.87;;;6.30;99.90;;;;;;4903501;29;20206;-94
2021/03/28 12:16:09;;;;;;;7.37;3.13;;;6.20;99.90;;;;;;4905789;29;20249;-94
2021/03/28 12:22:02;;;;;;;9.17;3.70;;;6.20;99.90;;;;;;4899909;29;20217;-93
2021/03/28 12:24:38;;;;;;;8.13;3.50;;;6.20;99.90;;;;;;4909462;29;20274;-94
2021/03/28 12:27:30;;;;;;;11.37;3.60;;;6.20;99.90;;;;;;4908831;29;20764;-94
2021/03/28 12:42:28;;;;;;;11.30;3.07;;;6.10;99.90;;;;;;4920515;29;20238;-95
2021/03/28 12:48:19;;;;;;;9.83;3.00;;;6.10;99.90;;;;;;4963930;23;20260;-93
2021/03/28 12:50:51;;;;;;;5.87;2.93;;;6.10;99.90;;;;;;4918919;29;20229;-93
2021/03/28 12:53:41;;;;;;;8.30;3.37;;;6.10;99.90;;;;;;4921850;29;20194;-93
2021/03/28 12:56:31;;;;;;;6.13;2.90;;;6.10;99.90;;;;;;4915834;29;20332;-92
2021/03/28 12:59:45;;;;;;;12.47;3.53;;;6.10;99.90;;;;;;4915782;29;20221;-93
2021/03/28 13:02:37;;;;;;;7.10;3.30;;;6.10;99.90;;;;;;4912506;29;20210;-94
2021/03/28 13:05:38;;;;;;;8.50;3.20;;;6.10;99.90;;;;;;4907253;29;20592;-94
2021/03/28 13:08:24;;;;;;;9.87;3.67;;;6.00;99.90;;;;;;4904039;29;20301;-93
2021/03/28 13:11:10;;;;;;;5.20;3.60;;;6.00;99.90;;;;;;4900949;29;20214;-94
2021/03/28 13:13:47;;;;;;;8.97;3.47;;;6.00;99.90;;;;;;4906881;29;20209;-94
2021/03/28 13:16:28;;;;;;;6.07;3.10;;;6.00;99.90;;;;;;4927836;29;20233;-94
2021/03/28 13:19:33;;;;;;;7.63;3.33;;;6.00;99.90;;;;;;4915062;29;20238;-93
2021/03/28 13:22:28;;;;;;;14.67;3.63;;;6.00;99.90;;;;;;4916413;29;20212;-93
2021/03/28 13:25:24;;;;;;;5.83;3.30;;;6.00;99.90;;;;;;4914333;29;20221;-94
2021/03/28 13:28:28;;;;;;;7.60;2.80;;;6.00;99.90;;;;;;4893357;29;20210;-94
2021/03/28 13:31:27;;;;;;;7.93;3.33;;;6.00;99.90;;;;;;4920603;29;20209;-95
2021/03/28 13:34:05;;;;;;;7.47;2.90;;;6.00;99.90;;;;;;4922790;29;20189;-93
2021/03/28 13:36:44;;;;;;;6.93;3.03;;;6.00;99.90;;;;;;4921241;29;20267;-93
2021/03/28 13:39:19;;;;;;;6.87;2.67;;;6.00;99.90;;;;;;4912382;29;20216;-94
2021/03/28 13:42:25;;;;;;;6.70;2.67;;;6.00;99.90;;;;;;4913828;29;20277;-93
2021/03/28 13:45:22;;;;;;;8.20;2.90;;;6.00;99.90;;;;;;4915918;29;20209;-93
2021/03/28 13:47:56;;;;;;;6.47;2.93;;;6.00;99.90;;;;;;4908898;29;20733;-94
2021/03/28 13:54:05;;;;;;;5.43;2.83;;;6.10;99.90;;;;;;4907922;29;20286;-94
2021/03/28 13:56:50;;;;;;;8.43;3.13;;;6.10;99.90;;;;;;4910583;29;20241;-94
2021/03/28 13:59:25;;;;;;;10.07;3.23;;;6.10;99.90;;;;;;4905090;29;20240;-93
2021/03/28 14:02:01;;;;;;;6.20;2.97;;;6.10;99.90;;;;;;4903571;29;20221;-92
2021/03/28 14:04:39;;;;;;;6.37;3.20;;;6.10;99.90;;;;;;4906848;29;20233;-93
2021/03/28 14:07:28;;;;;;;7.30;2.90;;;6.10;99.90;;;;;;4903153;29;20213;-95
2021/03/28 14:10:22;;;;;;;7.07;2.80;;;6.10;99.90;;;;;;4905866;29;20206;-93
2021/03/28 14:12:59;;;;;;;5.90;2.87;;;6.10;99.90;;;;;;4903012;29;20295;-93
2021/03/28 14:15:36;;;;;;;8.03;2.77;;;6.00;99.90;;;;;;4904186;29;20271;-94
2021/03/28 14:18:25;;;;;;;7.77;2.80;;;6.10;99.90;;;;;;4902966;29;20250;-94
2021/03/28 14:21:26;;;;;;;7.83;3.17;;;6.10;99.90;;;;;;4902959;29;20604;-95
2021/03/28 14:24:10;;;;;;;5.30;2.97;;;6.10;99.90;;;;;;4903839;29;20253;-93
2021/03/28 14:26:47;;;;;;;8.57;3.00;;;6.10;99.90;;;;;;4904153;29;20277;-94
2021/03/28 14:29:36;;;;;;;6.90;2.53;;;6.10;99.90;;;;;;4914364;29;20210;-94
2021/03/28 14:39:33;;;;;;;6.80;2.57;;;6.10;99.90;;;;;;4921027;29;20186;-94
2021/03/28 14:45:11;;;;;;;4.83;2.20;;;6.10;99.90;;;;;;4920950;29;20215;-94
2021/03/28 14:51:35;;;;;;;7.73;2.07;;;6.20;99.90;;;;;;4912411;29;20213;-94
2021/03/28 14:54:21;;;;;;;5.30;1.97;;;6.20;99.90;;;;;;4905533;29;20233;-94
2021/03/28 14:57:01;;;;;;;4.47;1.53;;;6.30;99.90;;;;;;4905448;29;20238;-95
2021/03/28 15:00:02;;;;;;;4.17;1.53;;;6.40;99.90;;;;;;4901750;29;20210;-94
2021/03/28 15:03:01;;;;;;;3.13;1.67;;;6.40;99.90;;;;;;4902827;29;20217;-94
2021/03/28 15:06:08;;;;;;;3.50;1.20;;;6.50;99.90;;;;;;4911672;29;20285;-94
2021/03/28 15:08:52;;;;;;;4.30;1.40;;;6.50;99.90;;;;;;4896807;29;20276;-93
2021/03/28 15:11:42;;;;;;;3.03;1.67;;;6.60;99.90;;;;;;4905188;29;20695;-93
2021/03/28 15:14:25;;;;;;;4.57;1.47;;;6.60;99.90;;;;;;4906874;29;20210;-96
2021/03/28 15:17:08;;;;;;;1.83;1.30;;;6.60;99.90;;;;;;4915096;29;20699;-92
2021/03/28 15:19:56;;;;;;;2.90;1.07;;;6.60;99.90;;;;;;4912522;29;20265;-95
2021/03/28 15:22:40;;;;;;;4.17;1.07;;;6.60;99.90;;;;;;4917534;29;20217;-95
2021/03/28 15:25:25;;;;;;;3.33;1.23;;;6.60;99.90;;;;;;4915826;29;20536;-94
2021/03/28 15:28:06;;;;;;;3.27;1.33;;;6.60;99.90;;;;;;4911918;29;20225;-93
2021/03/28 15:30:49;;;;;;;2.33;1.20;;;6.60;99.90;;;;;;4909984;29;20210;-93
2021/03/28 15:33:47;;;;;;;4.03;1.10;;;6.60;99.90;;;;;;4911366;29;20253;-92
2021/03/28 15:36:39;;;;;;;3.57;1.17;;;6.60;99.90;;;;;;4914403;29;20240;-91
2021/03/28 15:46:06;;;;;;;3.37;1.40;;;6.70;99.90;;;;;;4897890;29;20202;-93
2021/03/28 15:49:20;;;;;;;3.47;1.20;;;6.70;99.90;;;;;;4889148;29;20663;-93
2021/03/28 15:52:42;;;;;;;4.63;1.40;;;6.70;99.90;;;;;;4890868;29;20210;-93
2021/03/28 15:55:38;;;;;;;1.90;1.20;;;6.70;99.90;;;;;;4830423;29;20269;-95
2021/03/28 15:58:59;;;;;;;4.37;1.20;;;6.70;99.90;;;;;;4869070;29;20246;-93
2021/03/28 16:05:30;;;;;;;1.37;1.27;;;6.60;99.90;;;;;;4892126;29;20288;-93
2021/03/28 16:08:36;;;;;;;4.73;1.30;;;6.60;99.90;;;;;;4899298;29;20267;-92